Catàleg de serveis del Meteocat
Campanya meteocatpedra

Dades de l'estació automàtica Aldover

?
?
Resum diari 22:30 TU
Dades diàries de l'estació meteorològica
Temperatura mitjana 11.9 °C
Temperatura màxima 16.2 °C 14:35 TU
Temperatura mínima 8.4 °C 22:11 TU
Humitat relativa mitjana 73%
Precipitació acumulada 7.1 mm
Ratxa màxima del vent (2 m) 34.2 km/h - 286º 17:10 TU
Irradiació solar global 3.8 MJ/m2

El tram horari està expressat en Temps Universal (TU). Cal sumar una hora en horari d'hivern i dues en horari d'estiu per passar a l'hora oficial.

Aldover

Metadades estació meteorol´gica
Municipi Aldover
Comarca Baix Ebre
Altitud 52 m
Data alta 31.12.1994
Estat actual Operativa
Dades de període
Període
TU
TM
°C
TX
°C
TN
°C
HRM
%
PPT
mm
VVM (2 m)
km/h
DVM (2 m)
graus
VVX (2 m)
km/h
RS
W/m2
00:00 - 00:30 14.0 14.2 13.8 52 0.0 3.2 309 14.0 0
00:30 - 01:00 12.9 14.0 12.0 56 0.0 0.4 226 4.7 0
01:00 - 01:30 12.2 12.6 11.9 59 0.0 0.4 58 5.4 0
01:30 - 02:00 11.8 11.9 11.6 62 0.0 0.0 40 3.6 0
02:00 - 02:30 11.5 11.6 11.4 63 0.0 0.0 213 4.0 0
02:30 - 03:00 11.6 12.0 11.5 66 0.0 1.4 15 6.1 0
03:00 - 03:30 12.2 12.4 11.9 63 0.0 2.5 343 6.5 0
03:30 - 04:00 11.8 12.1 11.7 64 0.0 1.8 297 9.7 0
04:00 - 04:30 11.9 12.1 11.7 65 0.0 0.7 3 4.3 0
04:30 - 05:00 11.3 11.7 10.7 74 0.1 0.7 296 4.3 0
05:00 - 05:30 10.3 10.6 10.2 87 0.4 1.4 330 4.7 0
05:30 - 06:00 10.1 10.3 9.9 88 0.0 3.2 358 9.0 0
06:00 - 06:30 9.7 9.9 9.5 92 0.8 2.5 324 6.5 0
06:30 - 07:00 9.5 9.6 9.5 94 1.0 2.2 332 7.6 1
07:00 - 07:30 9.5 9.5 9.4 96 0.6 2.9 342 6.8 3
07:30 - 08:00 9.5 9.5 9.4 97 0.7 3.2 336 11.2 8
08:00 - 08:30 9.6 9.7 9.4 97 0.8 4.0 338 11.5 31
08:30 - 09:00 9.7 9.7 9.6 97 0.9 5.8 343 15.1 30
09:00 - 09:30 9.8 10.0 9.6 97 1.2 5.8 349 16.9 60
09:30 - 10:00 10.4 10.8 10.1 97 0.4 6.5 9 16.6 119
10:00 - 10:30 10.9 11.0 10.8 94 0.1 6.5 12 21.2 123
10:30 - 11:00 11.3 11.5 11.0 92 0.1 6.1 9 18.4 162
11:00 - 11:30 11.9 13.1 11.5 86 0.0 5.8 345 17.6 277
11:30 - 12:00 12.4 13.2 12.2 82 0.0 5.8 23 19.1 144
12:00 - 12:30 12.1 12.3 12.0 81 0.0 5.0 19 14.8 60
12:30 - 13:00 12.5 12.7 12.3 79 0.0 2.9 30 15.5 84
13:00 - 13:30 13.2 14.0 12.7 74 0.0 5.0 8 21.6 101
13:30 - 14:00 14.4 14.9 14.2 69 0.0 9.0 358 27.7 165
14:00 - 14:30 15.6 16.1 14.9 63 0.0 8.6 332 22.3 311
14:30 - 15:00 16.1 16.2 16.0 56 0.0 9.0 327 30.6 247
15:00 - 15:30 15.9 16.0 15.7 54 0.0 10.8 332 32.0 181
15:30 - 16:00 15.3 15.6 14.9 54 0.0 8.6 330 25.9 38
16:00 - 16:30 14.6 14.8 14.3 56 0.0 6.5 321 22.3 14
16:30 - 17:00 14.4 14.5 14.1 53 0.0 5.8 313 18.7 2
17:00 - 17:30 14.5 14.9 14.0 50 0.0 9.7 305 34.2 0
17:30 - 18:00 14.5 14.8 14.2 51 0.0 9.0 319 26.6 0
18:00 - 18:30 14.1 14.5 13.5 52 0.0 5.0 302 18.7 0
18:30 - 19:00 13.1 13.7 11.8 57 0.0 1.1 324 7.6 0
19:00 - 19:30 11.6 12.1 11.1 67 0.0 1.1 29 7.6 0
19:30 - 20:00 11.6 12.1 11.1 68 0.0 1.8 18 9.0 0
20:00 - 20:30 11.6 11.8 11.2 67 0.0 2.2 13 7.2 0
20:30 - 21:00 10.7 11.5 10.0 70 0.0 0.4 14 4.7 0
21:00 - 21:30 10.1 10.5 9.7 72 0.0 0.4 273 2.5 0
21:30 - 22:00 9.8 10.3 9.1 74 0.0 0.4 289 4.0 0
22:00 - 22:30 8.6 9.0 8.4 84 0.0 0.4 37 3.6 0
22:30 - 23:00 8.8 9.0 8.5 83 0.0 1.4 305 4.7 0

Les dades en taronja només han passat un control de qualitat automàtic. Resta pendent la seva validació definitiva.